createdAt,value
2019-02-05T00:02:13.617Z,5.53
2019-02-05T00:07:20.090Z,5.70
2019-02-05T00:12:26.711Z,5.80
2019-02-05T00:17:33.020Z,5.50
2019-02-05T00:22:39.332Z,5.45
2019-02-05T00:27:45.619Z,5.47
2019-02-05T00:32:51.931Z,5.87
2019-02-05T00:37:58.224Z,6.63
2019-02-05T00:43:05.819Z,6.62
2019-02-05T00:48:12.181Z,6.40
2019-02-05T00:53:18.501Z,6.40
2019-02-05T00:58:25.063Z,7.07
2019-02-05T01:03:31.878Z,6.37
2019-02-05T01:08:38.589Z,6.63
2019-02-05T01:13:44.873Z,6.73
2019-02-05T01:18:51.172Z,6.77
2019-02-05T01:23:57.385Z,7.03
2019-02-05T01:29:03.838Z,7.12
2019-02-05T01:34:10.265Z,7.40
2019-02-05T01:39:16.601Z,6.70
2019-02-05T01:44:22.936Z,7.30
2019-02-05T01:49:29.235Z,7.23
2019-02-05T01:54:35.858Z,6.80
2019-02-05T01:59:42.245Z,7.93
2019-02-05T02:04:48.811Z,7.93
2019-02-05T02:09:55.116Z,6.77
2019-02-05T02:15:01.545Z,6.57
2019-02-05T02:20:09.781Z,7.10
2019-02-05T02:25:16.661Z,7.63
2019-02-05T02:30:28.598Z,7.92
2019-02-05T02:35:36.212Z,7.87
2019-02-05T02:40:42.572Z,8.33
2019-02-05T02:45:49.007Z,7.40
2019-02-05T02:50:55.437Z,7.85
2019-02-05T02:56:01.802Z,7.95
2019-02-05T03:01:08.506Z,8.40
2019-02-05T03:06:14.830Z,7.87
2019-02-05T03:11:21.144Z,7.57
2019-02-05T03:16:27.797Z,7.63
2019-02-05T03:21:34.150Z,8.30
2019-02-05T03:26:40.742Z,8.40
2019-02-05T03:31:47.051Z,8.33
2019-02-05T03:36:53.341Z,8.30
2019-02-05T03:41:59.644Z,8.00
2019-02-05T03:47:06.380Z,8.13
2019-02-05T03:52:26.211Z,8.77
2019-02-05T03:58:23.181Z,8.60
2019-02-05T04:03:49.395Z,8.87
2019-02-05T04:09:07.938Z,8.43
2019-02-05T04:15:03.803Z,9.70
2019-02-05T04:21:02.490Z,9.40
2019-02-05T04:26:45.349Z,10.33
2019-02-05T04:32:27.444Z,10.07
2019-02-05T04:38:30.411Z,9.30
2019-02-05T04:44:09.623Z,10.97
2019-02-05T04:49:58.803Z,9.50
2019-02-05T04:55:52.770Z,9.73
2019-02-05T05:01:34.095Z,10.03
2019-02-05T05:07:06.152Z,10.27
2019-02-05T05:12:12.476Z,10.10
2019-02-05T05:17:19.318Z,11.07
2019-02-05T05:22:26.427Z,10.90
2019-02-05T05:27:32.722Z,11.07
2019-02-05T05:32:39.070Z,12.33
2019-02-05T05:37:45.451Z,12.30
2019-02-05T05:42:51.820Z,11.43
2019-02-05T05:47:58.132Z,11.03
2019-02-05T05:53:04.648Z,11.70
2019-02-05T05:58:22.373Z,12.70
2019-02-05T06:03:19.409Z,12.27
2019-02-05T06:08:27.539Z,12.77
2019-02-05T06:13:34.039Z,13.33
2019-02-05T06:18:40.491Z,14.28
2019-02-05T06:23:46.933Z,14.40
2019-02-05T06:28:56.045Z,14.60
2019-02-05T06:34:02.689Z,15.50
2019-02-05T06:39:09.773Z,15.60
2019-02-05T06:44:16.163Z,16.00
2019-02-05T06:49:23.458Z,15.33
2019-02-05T06:54:29.935Z,15.13
2019-02-05T06:59:36.200Z,15.95
2019-02-05T07:04:43.288Z,17.13
2019-02-05T07:09:50.053Z,17.13
2019-02-05T07:14:57.579Z,17.15
2019-02-05T07:20:04.224Z,17.10
2019-02-05T07:25:12.874Z,16.30
2019-02-05T07:30:21.534Z,18.60
2019-02-05T07:35:27.885Z,19.48
2019-02-05T07:40:34.711Z,17.93
2019-02-05T07:45:41.091Z,18.97
2019-02-05T07:50:47.466Z,18.00
2019-02-05T07:55:54.047Z,18.87
2019-02-05T08:01:00.551Z,18.40
2019-02-05T08:06:07.338Z,18.10
2019-02-05T08:11:15.985Z,18.90
2019-02-05T08:16:22.406Z,18.43
2019-02-05T08:21:28.814Z,18.43
2019-02-05T08:26:35.125Z,18.70
2019-02-05T08:31:41.459Z,19.05
2019-02-05T08:36:48.239Z,19.73
2019-02-05T08:41:54.748Z,18.83
2019-02-05T08:47:01.180Z,18.33
2019-02-05T08:52:07.839Z,19.03
2019-02-05T08:57:14.840Z,18.50
2019-02-05T09:02:21.501Z,19.30
2019-02-05T09:07:27.866Z,19.60
2019-02-05T09:12:34.530Z,20.00
2019-02-05T09:17:41.177Z,20.13
2019-02-05T09:22:48.327Z,19.13
2019-02-05T09:27:56.363Z,19.00
2019-02-05T09:33:06.444Z,19.07
2019-02-05T09:38:13.244Z,21.37
2019-02-05T09:43:19.592Z,18.90
2019-02-05T09:48:26.245Z,20.30
2019-02-05T09:53:32.607Z,19.33
2019-02-05T09:58:40.252Z,18.65
2019-02-05T10:03:46.697Z,19.33
2019-02-05T10:08:53.348Z,18.90
2019-02-05T10:13:59.657Z,17.53
2019-02-05T10:19:06.187Z,19.23
2019-02-05T10:24:13.927Z,17.37
2019-02-05T10:29:20.291Z,17.33
2019-02-05T10:34:33.866Z,18.53
2019-02-05T10:39:34.806Z,17.20
2019-02-05T10:44:41.254Z,16.60
2019-02-05T10:49:49.439Z,16.63
2019-02-05T10:54:55.923Z,16.53
2019-02-05T11:00:09.104Z,15.27
2019-02-05T11:05:11.782Z,15.97
2019-02-05T11:10:18.422Z,15.47
2019-02-05T11:15:29.931Z,15.17
2019-02-05T11:20:36.384Z,14.80
2019-02-05T11:25:42.755Z,16.17
2019-02-05T11:30:49.112Z,17.37
2019-02-05T11:35:56.607Z,16.93
2019-02-05T11:41:02.965Z,17.97
2019-02-05T11:46:09.539Z,18.07
2019-02-05T11:51:15.971Z,18.48
2019-02-05T11:56:22.401Z,18.43
2019-02-05T12:01:38.857Z,19.10
2019-02-05T12:06:40.405Z,18.50
2019-02-05T12:11:46.950Z,19.13
2019-02-05T12:16:53.297Z,20.23
2019-02-05T12:21:59.623Z,18.60
2019-02-05T12:27:06.166Z,19.13
2019-02-05T12:32:12.551Z,19.60
2019-02-05T12:37:20.035Z,18.52
2019-02-05T12:42:26.402Z,17.12
2019-02-05T12:47:32.764Z,18.00
2019-02-05T12:52:39.101Z,18.80
2019-02-05T12:57:45.762Z,17.27
2019-02-05T13:02:54.434Z,19.33
2019-02-05T13:08:00.156Z,18.57
2019-02-05T13:13:08.234Z,19.00
2019-02-05T13:18:14.744Z,19.43
2019-02-05T13:23:21.263Z,18.82
2019-02-05T13:28:27.643Z,19.02
2019-02-05T13:33:35.770Z,18.55
2019-02-05T13:38:42.184Z,19.57
2019-02-05T13:43:48.522Z,17.93
2019-02-05T13:48:55.005Z,18.65
2019-02-05T13:54:01.349Z,18.60
2019-02-05T13:59:08.274Z,19.47
2019-02-05T14:04:14.839Z,20.50
2019-02-05T14:09:22.633Z,19.05
2019-02-05T14:14:29.434Z,21.87
2019-02-05T14:19:36.115Z,22.43
2019-02-05T14:24:42.646Z,21.10
2019-02-05T14:29:48.986Z,21.73
2019-02-05T14:34:56.731Z,20.47
2019-02-05T14:40:05.723Z,20.73
2019-02-05T14:45:12.724Z,18.27
2019-02-05T14:50:24.482Z,19.37
2019-02-05T14:55:30.919Z,19.40
2019-02-05T15:00:37.926Z,19.37
2019-02-05T15:05:45.508Z,18.60
2019-02-05T15:10:51.822Z,18.48
2019-02-05T15:15:58.170Z,19.67
2019-02-05T15:21:05.449Z,18.53
2019-02-05T15:26:12.232Z,17.85
2019-02-05T15:31:18.609Z,18.25
2019-02-05T15:36:31.522Z,18.83
2019-02-05T15:41:37.932Z,17.70
2019-02-05T15:46:44.333Z,18.30
2019-02-05T15:51:50.685Z,82.13
2019-02-05T15:56:57.025Z,57.77
2019-02-05T16:02:06.349Z,20.27
2019-02-05T16:07:11.382Z,20.17
2019-02-05T16:12:18.229Z,20.00
2019-02-05T16:17:24.617Z,17.90
2019-02-05T16:22:31.125Z,16.63
2019-02-05T16:27:37.432Z,17.07
2019-02-05T16:32:43.968Z,17.05
2019-02-05T16:37:50.689Z,17.00
2019-02-05T16:42:57.040Z,16.33
2019-02-05T16:48:03.791Z,17.80
2019-02-05T16:53:10.329Z,26.83
2019-02-05T16:58:16.681Z,18.70
2019-02-05T17:03:23.143Z,17.13
2019-02-05T17:08:29.856Z,18.90
2019-02-05T17:13:36.294Z,18.23
2019-02-05T17:18:42.669Z,18.65
2019-02-05T17:23:49.012Z,16.97
2019-02-05T17:28:56.220Z,18.53
2019-02-05T17:34:02.607Z,17.47
2019-02-05T17:39:12.610Z,19.10
2019-02-05T17:44:19.427Z,18.47
2019-02-05T17:49:25.809Z,18.43
2019-02-05T17:54:32.835Z,18.87
2019-02-05T17:59:39.330Z,19.30
2019-02-05T18:04:45.668Z,19.77
2019-02-05T18:09:55.260Z,20.27
2019-02-05T18:15:01.776Z,19.07
2019-02-05T18:20:08.956Z,18.48
2019-02-05T18:25:17.142Z,18.37
2019-02-05T18:30:30.518Z,19.37
2019-02-05T18:35:36.903Z,16.67
2019-02-05T18:40:43.510Z,19.90
2019-02-05T18:45:50.137Z,20.03
2019-02-05T18:50:56.479Z,22.63
2019-02-05T18:56:03.051Z,19.40
2019-02-05T19:01:10.099Z,19.57
2019-02-05T19:06:16.561Z,20.05
2019-02-05T19:11:23.057Z,22.43
2019-02-05T19:16:29.541Z,23.30
2019-02-05T19:21:36.065Z,26.70
2019-02-05T19:26:47.816Z,27.30
2019-02-05T19:31:55.508Z,27.27
2019-02-05T19:37:02.450Z,26.90
2019-02-05T19:42:09.219Z,25.13
2019-02-05T19:47:24.433Z,25.87
2019-02-05T19:52:32.679Z,26.27
2019-02-05T19:57:40.933Z,23.90
2019-02-05T20:02:47.942Z,24.47
2019-02-05T20:07:54.343Z,22.80
2019-02-05T20:13:01.012Z,24.32
2019-02-05T20:18:07.667Z,22.77
2019-02-05T20:23:14.150Z,22.13
2019-02-05T20:28:20.502Z,22.05
2019-02-05T20:33:26.883Z,20.40
2019-02-05T20:38:33.368Z,20.97
2019-02-05T20:43:40.008Z,19.45
2019-02-05T20:48:47.483Z,19.90
2019-02-05T20:53:55.008Z,20.50
2019-02-05T20:59:01.935Z,18.87
2019-02-05T21:04:09.329Z,18.25
2019-02-05T21:09:18.583Z,16.00
2019-02-05T21:14:25.094Z,14.70
2019-02-05T21:19:31.564Z,13.00
2019-02-05T21:24:38.025Z,11.80
2019-02-05T21:29:44.612Z,10.80
2019-02-05T21:34:51.350Z,11.87
2019-02-05T21:40:02.372Z,11.22
2019-02-05T21:45:08.328Z,10.72
2019-02-05T21:50:17.728Z,9.93
2019-02-05T21:55:24.994Z,10.03
2019-02-05T22:00:33.406Z,9.90
2019-02-05T22:05:39.693Z,9.57
2019-02-05T22:10:47.912Z,9.27
2019-02-05T22:15:54.553Z,8.40
2019-02-05T22:21:00.984Z,7.27
2019-02-05T22:26:07.629Z,8.58
2019-02-05T22:31:14.297Z,8.00
2019-02-05T22:36:20.707Z,7.28
2019-02-05T22:41:27.299Z,7.37
2019-02-05T22:46:33.653Z,6.83
2019-02-05T22:51:40.313Z,7.10
2019-02-05T22:56:46.775Z,7.50
2019-02-05T23:01:58.996Z,7.67
2019-02-05T23:07:12.956Z,7.12
2019-02-05T23:12:35.583Z,7.90
2019-02-05T23:17:41.930Z,7.63
2019-02-05T23:22:48.192Z,7.83
2019-02-05T23:27:54.794Z,9.05
2019-02-05T23:33:01.102Z,8.93
2019-02-05T23:38:08.086Z,8.70
2019-02-05T23:43:14.416Z,8.33
2019-02-05T23:48:20.912Z,8.13
2019-02-05T23:53:27.231Z,8.20
2019-02-05T23:58:33.798Z,8.03
